Flight Track Log - Related Links

Times and Time Zones

All times are in EDT time to prevent confusion due to time zone crossing. See the N441KP flight status page for this flight to view local times or setup timezone preferences in your user account.

Time Position Orientation Groundspeed Altitude Reporting Facility
EDT Latitude Longitude Course Direction KTS MPH feet Rate Location/Type
Thu 08:53:11 AM 27.3667 -82.5500 180° South 154 177 1,500  Level Tampa TRACON
Thu 08:54:11 AM 27.3333 -82.5500 279° West 136 157 4,100 2,188 Climbing Tampa TRACON
Thu 08:56:01 AM 27.3439 -82.6286 329° Northwest 65 75 7,700 1,871 Climbing Miami Center
Thu 08:57:01 AM 27.3886 -82.6589 327° Northwest 146 168 9,400 1,700 Climbing Miami Center
Thu 08:58:01 AM 27.4272 -82.6867 332° Northwest 162 186 11,100 1,950 Climbing Miami Center
Thu 08:59:01 AM 27.4742 -82.7147 350° North 174 200 13,300 2,013 Climbing Miami Center
Thu 09:00:33 AM 27.5531 -82.7311 354° North 191 220 16,200 1,765 Climbing Jacksonville Center
Thu 09:01:34 AM 27.6094 -82.7381 348° North 191 220 17,800 1,500 Climbing Jacksonville Center
Thu 09:02:33 AM 27.6658 -82.7519 358° North 201 231 19,200 1,412 Climbing Jacksonville Center
Thu 09:03:33 AM 27.7242 -82.7542 352° North 201 231 20,600 1,250 Climbing Jacksonville Center
Thu 09:04:33 AM 27.7847 -82.7636 349° North 208 239 21,700 1,041 Climbing Jacksonville Center
Thu 09:05:34 AM 27.8472 -82.7775 356° North 214 246 22,700 1,091 Climbing Jacksonville Center
Thu 09:06:34 AM 27.9100 -82.7822 357° North 220 253 23,900 700 Climbing Jacksonville Center
Thu 09:07:34 AM 27.9789 -82.7869 345° North 227 261 24,100 100 Climbing Jacksonville Center
Thu 09:08:34 AM 28.0478 -82.8078 352° North 245 282 24,100 -50 Level Jacksonville Center
Thu 09:09:33 AM 28.1250 -82.8197 359° North 262 302 24,000 -50 Descending Jacksonville Center
Thu 09:10:33 AM 28.2106 -82.8219 351° North 274 315 24,000 50 Level Jacksonville Center
Thu 09:11:33 AM 28.2878 -82.8361 345° North 274 315 24,100  Climbing Jacksonville Center
Thu 09:12:33 AM 28.3628 -82.8594 354° North 274 315 24,000 -50 Descending Jacksonville Center
Thu 09:13:34 AM 28.4400 -82.8689 352° North 279 321 24,000  Level Jacksonville Center
Thu 09:14:33 AM 28.5192 -82.8808 354° North 279 321 24,000  Level Jacksonville Center
Thu 09:15:33 AM 28.5986 -82.8903 351° North 279 321 24,000  Level Jacksonville Center
Thu 09:16:33 AM 28.6736 -82.9044 356° North 279 321 24,000  Level Jacksonville Center
Thu 09:17:33 AM 28.7531 -82.9114 347° North 279 321 24,000  Level Jacksonville Center
Thu 09:18:33 AM 28.8281 -82.9306 357° North 279 321 24,000  Level Jacksonville Center
Thu 09:19:33 AM 28.9053 -82.9353 355° North 279 321 24,000 50 Level Jacksonville Center
Thu 09:20:33 AM 28.9722 -82.9425 348° North 273 314 24,100  Climbing Jacksonville Center
Thu 09:21:33 AM 29.0494 -82.9614 351° North 273 314 24,000 -50 Descending Jacksonville Center
Thu 09:22:33 AM 29.1267 -82.9758 355° North 279 321 24,000  Level Jacksonville Center
Thu 09:23:33 AM 29.1997 -82.9831 347° North 274 315 24,000  Level Jacksonville Center
Thu 09:24:33 AM 29.2811 -83.0044 354° North 279 321 24,000 50 Level Jacksonville Center
Thu 09:25:33 AM 29.3583 -83.0142 358° North 279 321 24,100  Climbing Jacksonville Center
Thu 09:26:33 AM 29.4356 -83.0167 352° North 273 314 24,000 -50 Descending Jacksonville Center
Thu 09:27:33 AM 29.5106 -83.0286 348° North 273 314 24,000  Level Jacksonville Center
Thu 09:28:33 AM 29.5900 -83.0478 340° North 279 321 24,000 50 Level Jacksonville Center
Thu 09:29:33 AM 29.6631 -83.0789 339° North 279 321 24,100 50 Climbing Jacksonville Center
Thu 09:30:33 AM 29.7339 -83.1103 337° Northwest 274 315 24,100  Level Jacksonville Center
Thu 09:31:33 AM 29.8028 -83.1439 339° North 274 315 24,100 -50 Level Jacksonville Center
Thu 09:32:33 AM 29.8778 -83.1775 336° Northwest 274 315 24,000 -50 Descending Jacksonville Center
Thu 09:33:33 AM 29.9489 -83.2139 338° Northwest 274 315 24,000  Level Jacksonville Center
Thu 09:34:33 AM 30.0197 -83.2475 337° Northwest 269 310 24,000  Level Jacksonville Center
Thu 09:35:33 AM 30.0883 -83.2814 343° North 269 310 24,000  Level Jacksonville Center
Thu 09:36:33 AM 30.1636 -83.3083 335° Northwest 275 316 24,000  Level Jacksonville Center
Thu 09:37:33 AM 30.2344 -83.3469 339° North 275 316 24,000  Level Jacksonville Center
Thu 09:38:33 AM 30.3094 -83.3811 344° North 275 316 24,000  Level Jacksonville Center
Thu 09:39:33 AM 30.3844 -83.4056 335° Northwest 281 323 24,000  Level Jacksonville Center
Thu 09:40:33 AM 30.4553 -83.4444 337° Northwest 281 323 24,000  Level Jacksonville Center
Thu 09:41:33 AM 30.5242 -83.4786 337° Northwest 281 323 24,000  Level Jacksonville Center
Thu 09:42:34 AM 30.5969 -83.5153 338° Northwest 276 318 24,000  Level Jacksonville Center
Thu 09:43:34 AM 30.6700 -83.5494 334° Northwest 276 318 24,000  Level Jacksonville Center
Thu 09:44:33 AM 30.7428 -83.5911 339° North 276 318 24,000  Level Jacksonville Center
Thu 09:45:33 AM 30.8156 -83.6231 342° North 276 318 24,000  Level Jacksonville Center
Thu 09:46:33 AM 30.8928 -83.6528 336° Northwest 281 323 24,000  Level Jacksonville Center
Thu 09:47:34 AM 30.9636 -83.6897 338° Northwest 281 323 24,000  Level Jacksonville Center
Thu 09:48:34 AM 31.0364 -83.7242 338° Northwest 281 323 24,000  Level Jacksonville Center
Thu 09:49:34 AM 31.1092 -83.7589 337° Northwest 281 323 24,000  Level Jacksonville Center
Thu 09:50:34 AM 31.1819 -83.7958 337° Northwest 276 318 24,000  Level Jacksonville Center
Thu 09:53:04 AM 31.3750 -83.8906 340° North 276 318 24,000  Level Atlanta Center
Thu 09:54:04 AM 31.4481 -83.9219 334° Northwest 276 318 24,000  Level Atlanta Center
Thu 09:55:04 AM 31.5211 -83.9633 346° North 276 318 24,000  Level Atlanta Center
Thu 09:56:05 AM 31.5983 -83.9853 350° North 276 318 24,000  Level Atlanta Center
Thu 09:57:04 AM 31.6778 -84.0022 349° North 276 318 24,000  Level Atlanta Center
Thu 09:58:04 AM 31.7592 -84.0217 352° North 281 323 24,000  Level Atlanta Center
Thu 09:59:04 AM 31.8300 -84.0339 347° North 281 323 24,000  Level Atlanta Center
Thu 10:00:04 AM 31.9094 -84.0558 349° North 286 329 24,000  Level Atlanta Center
Thu 10:01:04 AM 31.9867 -84.0731 348° North 286 329 24,000  Level Atlanta Center
Thu 10:02:04 AM 32.0681 -84.0928 353° North 286 329 24,000  Level Atlanta Center
Thu 10:03:04 AM 32.1472 -84.1050 348° North 286 329 24,000 50 Level Atlanta Center
Thu 10:04:05 AM 32.2267 -84.1247 349° North 286 329 24,100  Climbing Atlanta Center
Thu 10:05:04 AM 32.3039 -84.1419 349° North 286 329 24,000 -50 Descending Atlanta Center
Thu 10:06:04 AM 32.3831 -84.1594 351° North 286 329 24,000  Level Atlanta Center
Thu 10:07:04 AM 32.4625 -84.1742 351° North 286 329 24,000  Level Atlanta Center
Thu 10:08:04 AM 32.5397 -84.1892 348° North 286 329 24,000 -50 Level Atlanta Center
Thu 10:09:04 AM 32.6189 -84.2089 348° North 286 329 23,900  Descending Atlanta Center
Thu 10:10:04 AM 32.6983 -84.2289 351° North 281 323 24,000 50 Climbing Atlanta Center
Thu 10:11:04 AM 32.7775 -84.2439 348° North 281 323 24,000  Level Atlanta Center
Thu 10:12:04 AM 32.8653 -84.2664 349° North 286 329 24,000  Level Atlanta Center
Thu 10:13:04 AM 32.9444 -84.2839 350° North 286 329 24,000  Level Atlanta Center
Thu 10:14:04 AM 33.0133 -84.2989 350° North 281 323 24,000  Level Atlanta Center
Thu 10:15:04 AM 33.0925 -84.3164 North 281 323 24,000  Level Atlanta Center
Thu 10:16:04 AM 33.1739 -84.3117 North 281 323 24,000  Level Atlanta Center
Thu 10:17:04 AM 33.2533 -84.2997 North 281 323 24,000  Level Atlanta Center
Thu 10:18:04 AM 33.3369 -84.2900 North 293 337 24,000  Level Atlanta Center
Thu 10:19:04 AM 33.4161 -84.2778 11° North 293 337 24,000  Level Atlanta Center
Thu 10:20:04 AM 33.4978 -84.2581 North 293 337 24,000  Level Atlanta Center
Thu 10:21:04 AM 33.5875 -84.2458 North 293 337 24,000  Level Atlanta Center
Thu 10:22:04 AM 33.6689 -84.2386 North 294 338 24,000  Level Atlanta Center
Thu 10:23:04 AM 33.7503 -84.2286 North 287 330 24,000  Level Atlanta Center
Thu 10:24:04 AM 33.8358 -84.2164 12° North 287 330 24,000  Level Atlanta Center
Thu 10:25:04 AM 33.9131 -84.1964 North 294 338 24,000  Level Atlanta Center
Thu 10:26:04 AM 33.9967 -84.1867 North 294 338 24,000  Level Atlanta Center
Thu 10:27:04 AM 34.0800 -84.1767 North 294 338 24,000  Level Atlanta Center
Thu 10:28:04 AM 34.1617 -84.1619 North 294 338 24,000  Level Atlanta Center
Thu 10:29:04 AM 34.2450 -84.1519 North 294 338 24,000 50 Level Atlanta Center
Thu 10:30:04 AM 34.3264 -84.1394 North 294 338 24,100  Climbing Atlanta Center
Thu 10:31:04 AM 34.4078 -84.1244 North 294 338 24,000 -50 Descending Atlanta Center
Thu 10:32:04 AM 34.4872 -84.1119 North 294 338 24,000  Level Atlanta Center
Thu 10:33:04 AM 34.5706 -84.1044 10° North 294 338 24,000  Level Atlanta Center
Thu 10:34:04 AM 34.6519 -84.0867 North 294 338 24,000  Level Atlanta Center
Thu 10:35:04 AM 34.7231 -84.0817 North 288 331 24,000  Level Atlanta Center
Thu 10:36:04 AM 34.8044 -84.0717 10° North 288 331 24,000  Level Atlanta Center
Thu 10:37:04 AM 34.8858 -84.0539 North 293 337 24,000  Level Atlanta Center
Thu 10:38:04 AM 34.9692 -84.0464 North 293 337 24,000  Level Atlanta Center
Thu 10:39:04 AM 35.0506 -84.0361 North 293 337 24,000  Level Atlanta Center
Thu 10:40:04 AM 35.1319 -84.0236 North 293 337 24,000  Level Atlanta Center
Thu 10:41:04 AM 35.2133 -84.0133 North 293 337 24,000  Level Atlanta Center
Thu 10:42:04 AM 35.2928 -83.9981 North 293 337 24,000  Level Atlanta Center
Thu 10:43:04 AM 35.3739 -83.9853 North 293 337 24,000  Level Atlanta Center
Thu 10:44:04 AM 35.4553 -83.9750 10° North 293 337 24,000  Level Atlanta Center
Thu 10:45:04 AM 35.5367 -83.9569 North 293 337 24,000  Level Atlanta Center
Thu 10:46:04 AM 35.6181 -83.9494 12° North 293 337 24,000  Level Atlanta Center
Thu 10:47:04 AM 35.6972 -83.9289 North 293 337 24,000  Level Atlanta Center
Thu 10:48:04 AM 35.7786 -83.9133 North 293 337 24,000  Level Atlanta Center
Thu 10:49:04 AM 35.8600 -83.9056 North 293 337 24,000  Level Atlanta Center
Thu 10:50:04 AM 35.9392 -83.8978 North 293 337 24,000  Level Atlanta Center
Thu 10:51:05 AM 36.0206 -83.8925 North 293 337 24,000 -50 Level Atlanta Center
Thu 10:52:04 AM 36.1019 -83.8897 North 293 337 23,900  Descending Atlanta Center
Thu 10:53:04 AM 36.1811 -83.8819 North 288 331 24,000 32 Climbing Atlanta Center
Thu 10:55:11 AM 36.3611 -83.8717 North 290 334 24,000  Level Indianapolis Center
Thu 10:56:11 AM 36.4406 -83.8667 North 290 334 24,000  Level Indianapolis Center
Thu 10:57:11 AM 36.5031 -83.8644 North 290 334 24,000  Level Indianapolis Center
Thu 10:58:11 AM 36.5906 -83.8544 North 290 334 24,000  Level Indianapolis Center
Thu 10:59:11 AM 36.6719 -83.8522 North 290 334 24,000  Level Indianapolis Center
Thu 11:00:11 AM 36.7492 -83.8472 North 290 334 24,000 -250 Level Indianapolis Center
Thu 11:01:11 AM 36.8328 -83.8400 North 290 334 23,500 -550 Descending Indianapolis Center
Thu 11:02:11 AM 36.9183 -83.8350 North 290 334 22,900 -450 Descending Indianapolis Center
Thu 11:03:11 AM 37.0039 -83.8300 North 301 346 22,600 -400 Descending Indianapolis Center
Thu 11:04:11 AM 37.0894 -83.8253 North 307 353 22,100 -300 Descending Indianapolis Center
Thu 11:05:11 AM 37.1750 -83.8203 North 307 353 22,000 -50 Descending Indianapolis Center
Thu 11:06:11 AM 37.2625 -83.8128 North 301 346 22,000 -50 Level Indianapolis Center
Thu 11:07:11 AM 37.3439 -83.8078 North 291 335 21,900  Descending Indianapolis Center
Thu 11:08:11 AM 37.4231 -83.8003 North 291 335 22,000 50 Climbing Indianapolis Center
Thu 11:09:11 AM 37.5025 -83.7953 North 291 335 22,000  Level Indianapolis Center
Thu 11:10:11 AM 37.5839 -83.7903 North 291 335 22,000  Level Indianapolis Center
Thu 11:11:11 AM 37.6653 -83.7853 North 286 329 22,000  Level Indianapolis Center
Thu 11:12:12 AM 37.7444 -83.7828 North 286 329 22,000  Level Indianapolis Center
Thu 11:13:11 AM 37.8236 -83.7778 North 292 336 22,000  Level Indianapolis Center
Thu 11:14:11 AM 37.9050 -83.7675 357° North 292 336 22,000  Level Indianapolis Center
Thu 11:15:11 AM 37.9842 -83.7731 360° North 286 329 22,000  Level Indianapolis Center
Thu 11:16:11 AM 38.0636 -83.7733 North 286 329 22,000  Level Indianapolis Center
Thu 11:17:11 AM 38.1428 -83.7578 North 286 329 22,000  Level Indianapolis Center
Thu 11:18:11 AM 38.2242 -83.7500 North 291 335 22,000  Level Indianapolis Center
Thu 11:19:11 AM 38.3056 -83.7450 North 291 335 22,000  Level Indianapolis Center
Thu 11:20:11 AM 38.3847 -83.7397 North 291 335 22,000  Level Indianapolis Center
Thu 11:21:11 AM 38.4683 -83.7347 North 291 335 22,000  Level Indianapolis Center
Thu 11:22:11 AM 38.5475 -83.7269 360° North 291 335 22,000  Level Indianapolis Center
Thu 11:23:11 AM 38.6267 -83.7272 North 291 335 22,000 -250 Level Indianapolis Center
Thu 11:24:11 AM 38.7019 -83.7247 359° North 288 331 21,500 -1,000 Descending Indianapolis Center
Thu 11:25:11 AM 38.7853 -83.7275 337° Northwest 294 338 20,000 -1,500 Descending Indianapolis Center
Thu 11:26:11 AM 38.8686 -83.7731 331° Northwest 308 354 18,500 -1,450 Descending Indianapolis Center
Thu 11:27:11 AM 38.9478 -83.8294 337° Northwest 321 369 17,100 -1,423 Descending Indianapolis Center
Thu 11:27:48 AM 39.0081 -83.8617 335° Northwest 317 365 16,200 -1,450 Descending Indianapolis Center
Thu 11:29:11 AM 39.1103 -83.9236 330° Northwest 309 356 14,200 -1,586 Descending Indianapolis Center
Thu 11:30:08 AM 39.1789 -83.9750 334° Northwest 297 342 12,500 -2,050 Descending Indianapolis Center
Thu 11:31:11 AM 39.2517 -84.0208 340° North 294 338 10,100 -2,431 Descending Indianapolis Center
Thu 11:32:04 AM 39.3161 -84.0508 333° Northwest 275 316 7,800 -2,474 Descending Indianapolis Center
Thu 11:33:05 AM 39.3806 -84.0942 336° Northwest 262 302 5,400 6,709 Descending Indianapolis Center
Thu 11:34:11 AM 39.4511 -84.1353 334° Northwest 267 307 22,000 7,905 Climbing Indianapolis Center
Thu 11:35:11 AM 39.5239 -84.1814 335° Northwest 267 307 22,000  Level Indianapolis Center
Thu 11:36:11 AM 39.5967 -84.2253 336° Northwest 267 307 22,000  Level Indianapolis Center
Thu 11:37:11 AM 39.6528 -84.2581 336° Northwest 267 307 22,000  Level Indianapolis Center

Login

Don't have an account? Register now (free) for customized features, flight alerts, and more!